»·PEaware :: UAL143 KDEN-KASE

UAL143 :: KDEN-KASE

FLIGHT INFORMATION

Flight Status: Arrived
Operator:
United Airlines
More flights by this operator :: More flights under this callsign
Pilot: Brian Moulds (10491)
Aircraft: CANADAIR CL-600 CRJ-200
(CRJ2)
More flights by this aircraft type
Origin: KDEN Denver Intl
United States
Destination: KASE Aspen-Pitkin Co/Sardy
United States
More flights between these airports :: More routes between these airports
Route: CONNR3 DBL
File this flight plan on PilotEdge
Remarks:
Altitude:
(Current/Filed)
20,000ft
Speed:
(Current/Filed)
250kts
Departed: 11-Jan-17 10:19 AM
Arrived: 11-Jan-17 10:54 AM
Distance/Time
Traveled:
1nm/0:34
Distance/Time
To Go:
Arrived

Flight Plot

Page will automatically refresh every two minutes.


Map Options




Map Legend


Flown Route
Filed Route
Departure Airport
Arrival Airport
Navaid (VOR, NDB)
Fix

Horizontal Profiles

Position Reports

Time Latitude Longitude Heading Altitude Ground
Speed
11-Jan-17 09:41 39.853406 -104.678063 59 5321ft 0kts
11-Jan-17 09:42 39.853406 -104.678063 59 5321ft 0kts
11-Jan-17 09:43 39.853438 -104.677970 59 5320ft 0kts
11-Jan-17 09:44 39.853438 -104.677970 59 5320ft 0kts
11-Jan-17 09:45 39.853438 -104.677970 59 5320ft 0kts
11-Jan-17 09:46 39.853446 -104.677952 55 5320ft 0kts
11-Jan-17 09:47 39.853446 -104.677952 55 5320ft 0kts
11-Jan-17 09:49 39.853456 -104.677943 55 5320ft 0kts
11-Jan-17 09:54 39.853445 -104.677984 59 5320ft 0kts
11-Jan-17 09:55 39.853445 -104.677984 59 5320ft 0kts
11-Jan-17 09:56 39.853445 -104.677984 59 5320ft 0kts
11-Jan-17 09:57 39.853399 -104.678065 59 5321ft 0kts
11-Jan-17 09:58 39.853399 -104.678065 59 5321ft 0kts
11-Jan-17 09:59 39.853399 -104.678065 59 5321ft 0kts
11-Jan-17 10:00 39.853399 -104.678065 59 5321ft 0kts
11-Jan-17 10:01 39.853399 -104.678065 59 5321ft 0kts
11-Jan-17 10:02 39.853399 -104.678065 59 5321ft 0kts
11-Jan-17 10:03 39.853399 -104.678065 59 5321ft 0kts
11-Jan-17 10:04 39.853399 -104.678065 59 5321ft 0kts
11-Jan-17 10:05 39.853399 -104.678065 59 5321ft 0kts
11-Jan-17 10:06 39.853399 -104.678065 59 5321ft 0kts
11-Jan-17 10:07 39.853399 -104.678065 59 5321ft 0kts
11-Jan-17 10:08 39.853399 -104.678065 59 5321ft 0kts
11-Jan-17 10:09 39.853399 -104.678065 59 5321ft 0kts
11-Jan-17 10:10 39.853365 -104.678134 59 5321ft 0kts
11-Jan-17 10:11 39.853174 -104.678429 30 5321ft 0kts
11-Jan-17 10:12 39.852790 -104.678422 327 5321ft 0kts
11-Jan-17 10:13 39.852873 -104.678941 279 5321ft 12kts
11-Jan-17 10:14 39.853020 -104.683525 248 5321ft 11kts
11-Jan-17 10:15 39.848975 -104.684051 179 5321ft 19kts
11-Jan-17 10:16 39.842629 -104.684123 179 5321ft 24kts
11-Jan-17 10:17 39.842217 -104.684125 179 5321ft 0kts
11-Jan-17 10:18 39.841153 -104.684150 188 5321ft 11kts
11-Jan-17 10:19 39.840731 -104.698059 271 5321ft 123kts
11-Jan-17 10:20 39.840321 -104.760249 268 6073ft 214kts
11-Jan-17 10:21 39.839180 -104.847871 268 8167ft 204kts
11-Jan-17 10:22 39.838373 -104.909630 269 9279ft 208kts
11-Jan-17 10:23 39.837554 -105.007212 262 10490ft 256kts
11-Jan-17 10:24 39.822855 -105.080646 254 12219ft 261kts
11-Jan-17 10:25 39.802248 -105.176481 254 13258ft 304kts
11-Jan-17 10:26 39.779368 -105.283177 254 15019ft 312kts
11-Jan-17 10:27 39.756474 -105.391334 254 16644ft 318kts
11-Jan-17 10:28 39.732912 -105.501111 254 18053ft 325kts
11-Jan-17 10:29 39.705242 -105.634084 255 19339ft 340kts
11-Jan-17 10:30 39.691841 -105.732994 261 19340ft 331kts
11-Jan-17 10:31 39.679100 -105.847658 261 18613ft 322kts
11-Jan-17 10:32 39.664262 -105.980151 261 18024ft 319kts
11-Jan-17 10:33 39.653699 -106.073630 261 17663ft 317kts
11-Jan-17 10:34 39.641547 -106.180326 261 17310ft 281kts
11-Jan-17 10:35 39.630596 -106.275721 261 17234ft 263kts
11-Jan-17 10:36 39.609912 -106.363768 248 17241ft 260kts
11-Jan-17 10:37 39.581817 -106.452484 247 17242ft 274kts
11-Jan-17 10:38 39.552028 -106.545204 246 17241ft 287kts
11-Jan-17 10:39 39.519960 -106.641868 247 17240ft 298kts
11-Jan-17 10:40 39.487896 -106.738678 246 17240ft 307kts
11-Jan-17 10:41 39.457970 -106.838420 259 15850ft 301kts
11-Jan-17 10:42 39.450876 -106.939736 296 14260ft 277kts
11-Jan-17 10:43 39.503556 -106.966852 358 14232ft 236kts
11-Jan-17 10:44 39.565293 -106.972021 331 14239ft 230kts
11-Jan-17 10:45 39.563022 -107.036890 199 14259ft 229kts
11-Jan-17 10:46 39.501621 -107.040957 146 14253ft 235kts
11-Jan-17 10:47 39.451856 -106.985422 138 14241ft 246kts
11-Jan-17 10:48 39.399124 -106.953112 159 14222ft 223kts
11-Jan-17 10:49 39.351381 -106.930171 159 13270ft 214kts
11-Jan-17 10:50 39.298972 -106.905077 159 11932ft 194kts
11-Jan-17 10:51 39.255549 -106.884316 159 10877ft 181kts
11-Jan-17 10:52 39.209440 -106.862249 158 9452ft 177kts
11-Jan-17 10:53 39.165625 -106.844577 159 9173ft 164kts
11-Jan-17 10:54 39.218648 -106.863858 248 7778ft 0kts
11-Jan-17 10:55 39.218648 -106.863858 248 7778ft 0kts
11-Jan-17 10:56 39.853392 -104.678077 59 5321ft 0kts
11-Jan-17 10:57 39.853392 -104.678077 59 5321ft 0kts
11-Jan-17 10:58 39.853392 -104.678077 59 5321ft 0kts
11-Jan-17 10:59 39.853392 -104.678077 59 5321ft 0kts
11-Jan-17 11:00 39.853392 -104.678077 59 5321ft 0kts
11-Jan-17 11:01 39.853392 -104.678077 59 5321ft 0kts
11-Jan-17 11:02 39.853392 -104.678077 59 5321ft 0kts
11-Jan-17 11:03 39.853351 -104.678168 58 5321ft 0kts
11-Jan-17 11:04 39.853111 -104.678459 17 5321ft 0kts
11-Jan-17 11:05 39.852920 -104.678469 347 5321ft 0kts
11-Jan-17 11:06 39.852920 -104.678469 347 5321ft 0kts
11-Jan-17 11:07 39.852920 -104.678469 347 5321ft 0kts
11-Jan-17 11:08 39.853110 -104.682984 269 5321ft 14kts

Navigation Log

Ident Type
1. KDEN Airport
2. DBL Navaid
3. KASE Airport